Gallia Meigs Regional Airport


Codes: KGAS/
Name: Gallia Meigs Regional Airport
City: Gallipolis
Country: United States
Elevation: 566 ft.

Photos at Gallia Meigs Regional Airport


   Photos courtesy of SpottingLog. You can add your own sightings and photos by signing up for a free trial today.



No photos found.

Weather at Gallia Meigs Regional Airport


Time (UTC)DescriptionTempratureWindCloud coverageVisibilityPressureHumidity
25-Jun-2024 12:00Clear Sky17°C4 mph, S4%10000m1015hPa96%
25-Jun-2024 15:00Clear Sky21°C7 mph, SW9%10000m1015hPa79%
25-Jun-2024 18:00Few Clouds27°C7 mph, SW11%10000m1014hPa55%
25-Jun-2024 21:00Scattered Clouds34°C9 mph, SW41%10000m1011hPa33%
26-Jun-2024 00:00Scattered Clouds29°C9 mph, W39%10000m1011hPa57%
26-Jun-2024 03:00Light Rain21°C7 mph, NW64%10000m1013hPa96%
26-Jun-2024 06:00Light Rain19°C9 mph, NW68%10000m1012hPa93%
26-Jun-2024 09:00Light Rain19°C7 mph, NW100%6207m1014hPa98%
26-Jun-2024 12:00Moderate Rain20°C7 mph, NW100%10000m1012hPa99%
26-Jun-2024 15:00Light Rain24°C7 mph, S100%10000m1011hPa84%
26-Jun-2024 18:00Overcast Clouds30°C11 mph, SW99%10000m1008hPa57%
26-Jun-2024 21:00Light Rain30°C20 mph, W100%10000m1006hPa64%
27-Jun-2024 00:00Light Rain23°C11 mph, NW100%10000m1007hPa89%
27-Jun-2024 03:00Light Rain20°C2 mph, NE100%10000m1011hPa97%
27-Jun-2024 06:00Overcast Clouds19°C2 mph, NE100%10000m1011hPa98%
27-Jun-2024 09:00Scattered Clouds17°C4 mph, N34%10000m1010hPa99%
27-Jun-2024 12:00Scattered Clouds18°C4 mph, N28%10000m1013hPa92%
27-Jun-2024 15:00Clear Sky25°C7 mph, NE0%10000m1013hPa54%
27-Jun-2024 18:00Clear Sky29°C4 mph, NE0%10000m1012hPa39%
27-Jun-2024 21:00Clear Sky30°C2 mph, NE0%10000m1011hPa35%
28-Jun-2024 00:00Clear Sky25°C2 mph, N0%10000m1011hPa62%
28-Jun-2024 03:00Few Clouds19°C7 mph, N11%10000m1013hPa86%
28-Jun-2024 06:00Scattered Clouds17°C4 mph, NE26%10000m1013hPa92%
28-Jun-2024 09:00Clear Sky16°C4 mph, NE6%10000m1013hPa87%
28-Jun-2024 12:00Broken Clouds20°C4 mph, E54%10000m1014hPa73%
28-Jun-2024 15:00Broken Clouds29°C4 mph, SE62%10000m1013hPa52%
28-Jun-2024 18:00Broken Clouds34°C7 mph, SW51%10000m1011hPa39%
28-Jun-2024 21:00Scattered Clouds37°C9 mph, SW36%10000m1010hPa28%
29-Jun-2024 00:00Broken Clouds26°C4 mph, SE67%10000m1012hPa69%
29-Jun-2024 03:00Light Rain25°C4 mph, S100%10000m1014hPa77%
29-Jun-2024 06:00Light Rain24°C7 mph, S100%10000m1014hPa86%
29-Jun-2024 09:00Light Rain22°C4 mph, S100%10000m1014hPa94%
29-Jun-2024 12:00Light Rain22°C4 mph, S100%10000m1015hPa94%
29-Jun-2024 15:00Moderate Rain24°C7 mph, SW100%10000m1017hPa94%
29-Jun-2024 18:00Light Rain28°C9 mph, SW100%10000m1016hPa71%
29-Jun-2024 21:00Overcast Clouds28°C4 mph, SW100%10000m1014hPa73%
30-Jun-2024 00:00Overcast Clouds28°C2 mph, N96%10000m1014hPa79%
30-Jun-2024 03:00Moderate Rain24°C9 mph, W93%10000m1017hPa96%
30-Jun-2024 06:00Light Rain21°C4 mph, W97%10000m1017hPa98%
30-Jun-2024 09:00Overcast Clouds21°C4 mph, NW100%10000m1018hPa99%